sensor_id;sensor_type;location;lat;lon;timestamp;P1;durP1;ratioP1;P2;durP2;ratioP2
47289;SDS011;33197;52.524;13.444;2023-08-08T00:00:50;6.38;;;2.70;;
47289;SDS011;33197;52.524;13.444;2023-08-08T00:03:18;9.45;;;2.45;;
47289;SDS011;33197;52.524;13.444;2023-08-08T00:05:45;8.38;;;2.90;;
47289;SDS011;33197;52.524;13.444;2023-08-08T00:08:12;12.05;;;2.45;;
47289;SDS011;33197;52.524;13.444;2023-08-08T00:10:39;6.40;;;2.30;;
47289;SDS011;33197;52.524;13.444;2023-08-08T00:13:06;9.48;;;2.22;;
47289;SDS011;33197;52.524;13.444;2023-08-08T00:15:34;7.13;;;2.15;;
47289;SDS011;33197;52.524;13.444;2023-08-08T00:18:01;11.10;;;3.05;;
47289;SDS011;33197;52.524;13.444;2023-08-08T00:20:28;12.77;;;2.63;;
47289;SDS011;33197;52.524;13.444;2023-08-08T00:22:56;7.00;;;2.45;;
47289;SDS011;33197;52.524;13.444;2023-08-08T00:25:23;8.48;;;2.92;;
47289;SDS011;33197;52.524;13.444;2023-08-08T00:27:50;4.57;;;2.40;;
47289;SDS011;33197;52.524;13.444;2023-08-08T00:30:17;5.80;;;2.50;;
47289;SDS011;33197;52.524;13.444;2023-08-08T00:32:44;8.40;;;2.33;;
47289;SDS011;33197;52.524;13.444;2023-08-08T00:35:12;9.38;;;2.30;;
47289;SDS011;33197;52.524;13.444;2023-08-08T00:37:39;7.32;;;2.20;;
47289;SDS011;33197;52.524;13.444;2023-08-08T00:40:06;9.68;;;3.00;;
47289;SDS011;33197;52.524;13.444;2023-08-08T00:42:34;9.25;;;3.03;;
47289;SDS011;33197;52.524;13.444;2023-08-08T00:45:01;5.47;;;2.30;;
47289;SDS011;33197;52.524;13.444;2023-08-08T00:47:33;7.35;;;2.53;;
47289;SDS011;33197;52.524;13.444;2023-08-08T00:50:01;7.57;;;2.42;;
47289;SDS011;33197;52.524;13.444;2023-08-08T00:52:29;9.77;;;2.70;;
47289;SDS011;33197;52.524;13.444;2023-08-08T00:54:57;9.85;;;2.78;;
47289;SDS011;33197;52.524;13.444;2023-08-08T00:57:25;7.13;;;2.65;;
47289;SDS011;33197;52.524;13.444;2023-08-08T00:59:52;11.45;;;2.70;;
47289;SDS011;33197;52.524;13.444;2023-08-08T01:02:19;5.43;;;2.00;;
47289;SDS011;33197;52.524;13.444;2023-08-08T01:04:46;18.77;;;2.78;;
47289;SDS011;33197;52.524;13.444;2023-08-08T01:07:22;6.95;;;2.25;;
47289;SDS011;33197;52.524;13.444;2023-08-08T01:09:59;4.35;;;1.88;;
47289;SDS011;33197;52.524;13.444;2023-08-08T01:13:10;7.05;;;2.60;;
47289;SDS011;33197;52.524;13.444;2023-08-08T01:15:29;4.55;;;1.92;;
47289;SDS011;33197;52.524;13.444;2023-08-08T01:18:06;6.68;;;2.47;;
47289;SDS011;33197;52.524;13.444;2023-08-08T01:20:35;4.40;;;2.22;;
47289;SDS011;33197;52.524;13.444;2023-08-08T01:25:53;8.02;;;2.30;;
47289;SDS011;33197;52.524;13.444;2023-08-08T01:28:21;6.90;;;2.70;;
47289;SDS011;33197;52.524;13.444;2023-08-08T01:30:49;10.00;;;2.65;;
47289;SDS011;33197;52.524;13.444;2023-08-08T01:33:17;7.82;;;2.53;;
47289;SDS011;33197;52.524;13.444;2023-08-08T01:35:46;5.07;;;2.10;;
47289;SDS011;33197;52.524;13.444;2023-08-08T01:38:19;11.63;;;2.50;;
47289;SDS011;33197;52.524;13.444;2023-08-08T01:40:47;3.33;;;1.67;;
47289;SDS011;33197;52.524;13.444;2023-08-08T01:43:15;3.67;;;2.10;;
47289;SDS011;33197;52.524;13.444;2023-08-08T01:45:43;11.77;;;2.60;;
47289;SDS011;33197;52.524;13.444;2023-08-08T01:48:10;8.23;;;2.13;;
47289;SDS011;33197;52.524;13.444;2023-08-08T01:50:38;8.30;;;2.17;;
47289;SDS011;33197;52.524;13.444;2023-08-08T01:53:05;8.27;;;2.60;;
47289;SDS011;33197;52.524;13.444;2023-08-08T01:55:32;5.50;;;1.80;;
47289;SDS011;33197;52.524;13.444;2023-08-08T01:58:00;7.70;;;2.15;;
47289;SDS011;33197;52.524;13.444;2023-08-08T02:00:27;7.75;;;2.78;;
47289;SDS011;33197;52.524;13.444;2023-08-08T02:02:55;6.15;;;1.58;;
47289;SDS011;33197;52.524;13.444;2023-08-08T02:05:22;4.28;;;2.10;;
47289;SDS011;33197;52.524;13.444;2023-08-08T02:07:49;7.82;;;2.08;;
47289;SDS011;33197;52.524;13.444;2023-08-08T02:10:17;3.85;;;1.88;;
47289;SDS011;33197;52.524;13.444;2023-08-08T02:12:44;5.63;;;2.17;;
47289;SDS011;33197;52.524;13.444;2023-08-08T02:15:11;4.97;;;1.63;;
47289;SDS011;33197;52.524;13.444;2023-08-08T02:17:38;5.35;;;2.47;;
47289;SDS011;33197;52.524;13.444;2023-08-08T02:20:06;8.75;;;1.95;;
47289;SDS011;33197;52.524;13.444;2023-08-08T02:22:34;8.23;;;1.83;;
47289;SDS011;33197;52.524;13.444;2023-08-08T02:25:01;8.00;;;2.55;;
47289;SDS011;33197;52.524;13.444;2023-08-08T02:27:28;11.40;;;1.85;;
47289;SDS011;33197;52.524;13.444;2023-08-08T02:29:56;5.10;;;1.98;;
47289;SDS011;33197;52.524;13.444;2023-08-08T02:32:24;4.45;;;2.22;;
47289;SDS011;33197;52.524;13.444;2023-08-08T02:34:51;4.70;;;2.00;;
47289;SDS011;33197;52.524;13.444;2023-08-08T02:37:19;7.68;;;2.03;;
47289;SDS011;33197;52.524;13.444;2023-08-08T02:39:46;6.63;;;2.03;;
47289;SDS011;33197;52.524;13.444;2023-08-08T02:42:13;8.85;;;2.35;;
47289;SDS011;33197;52.524;13.444;2023-08-08T02:44:40;6.40;;;2.25;;
47289;SDS011;33197;52.524;13.444;2023-08-08T02:47:08;4.25;;;1.95;;
47289;SDS011;33197;52.524;13.444;2023-08-08T02:49:35;4.88;;;2.08;;
47289;SDS011;33197;52.524;13.444;2023-08-08T02:52:02;6.10;;;1.70;;
47289;SDS011;33197;52.524;13.444;2023-08-08T02:54:30;7.00;;;2.03;;
47289;SDS011;33197;52.524;13.444;2023-08-08T02:56:57;8.73;;;2.40;;
47289;SDS011;33197;52.524;13.444;2023-08-08T02:59:24;4.32;;;2.03;;
47289;SDS011;33197;52.524;13.444;2023-08-08T03:01:51;13.48;;;2.50;;
47289;SDS011;33197;52.524;13.444;2023-08-08T03:04:19;3.92;;;2.00;;
47289;SDS011;33197;52.524;13.444;2023-08-08T03:06:46;3.28;;;1.73;;
47289;SDS011;33197;52.524;13.444;2023-08-08T03:09:14;10.80;;;2.30;;
47289;SDS011;33197;52.524;13.444;2023-08-08T03:11:41;11.30;;;2.80;;
47289;SDS011;33197;52.524;13.444;2023-08-08T03:14:08;8.48;;;2.58;;
47289;SDS011;33197;52.524;13.444;2023-08-08T03:16:35;6.57;;;2.47;;
47289;SDS011;33197;52.524;13.444;2023-08-08T03:19:03;4.60;;;2.47;;
47289;SDS011;33197;52.524;13.444;2023-08-08T03:21:30;4.07;;;2.25;;
47289;SDS011;33197;52.524;13.444;2023-08-08T03:23:57;4.15;;;2.47;;
47289;SDS011;33197;52.524;13.444;2023-08-08T03:26:25;5.80;;;2.53;;
47289;SDS011;33197;52.524;13.444;2023-08-08T03:28:52;5.47;;;2.25;;
47289;SDS011;33197;52.524;13.444;2023-08-08T03:31:20;5.00;;;2.30;;
47289;SDS011;33197;52.524;13.444;2023-08-08T03:33:48;4.07;;;2.60;;
47289;SDS011;33197;52.524;13.444;2023-08-08T03:36:15;4.88;;;2.42;;
47289;SDS011;33197;52.524;13.444;2023-08-08T03:38:42;7.28;;;2.30;;
47289;SDS011;33197;52.524;13.444;2023-08-08T03:41:13;5.88;;;2.47;;
47289;SDS011;33197;52.524;13.444;2023-08-08T03:43:40;8.00;;;2.78;;
47289;SDS011;33197;52.524;13.444;2023-08-08T03:46:07;6.63;;;2.50;;
47289;SDS011;33197;52.524;13.444;2023-08-08T03:48:35;11.13;;;2.92;;
47289;SDS011;33197;52.524;13.444;2023-08-08T03:51:03;4.80;;;2.25;;
47289;SDS011;33197;52.524;13.444;2023-08-08T03:53:30;7.88;;;2.15;;
47289;SDS011;33197;52.524;13.444;2023-08-08T03:55:57;7.68;;;2.75;;
47289;SDS011;33197;52.524;13.444;2023-08-08T03:58:25;5.65;;;2.00;;
47289;SDS011;33197;52.524;13.444;2023-08-08T04:00:52;4.07;;;2.38;;
47289;SDS011;33197;52.524;13.444;2023-08-08T04:03:19;7.95;;;2.83;;
47289;SDS011;33197;52.524;13.444;2023-08-08T04:05:47;4.88;;;2.70;;
47289;SDS011;33197;52.524;13.444;2023-08-08T04:08:14;12.63;;;3.03;;
47289;SDS011;33197;52.524;13.444;2023-08-08T04:10:42;9.00;;;2.75;;
47289;SDS011;33197;52.524;13.444;2023-08-08T04:13:10;4.40;;;2.78;;
47289;SDS011;33197;52.524;13.444;2023-08-08T04:15:37;8.82;;;3.38;;
47289;SDS011;33197;52.524;13.444;2023-08-08T04:18:05;8.45;;;2.65;;
47289;SDS011;33197;52.524;13.444;2023-08-08T04:20:33;6.90;;;2.67;;
47289;SDS011;33197;52.524;13.444;2023-08-08T04:23:01;6.03;;;2.60;;
47289;SDS011;33197;52.524;13.444;2023-08-08T04:25:28;6.20;;;2.78;;
47289;SDS011;33197;52.524;13.444;2023-08-08T04:27:56;10.98;;;2.67;;
47289;SDS011;33197;52.524;13.444;2023-08-08T04:30:23;8.50;;;2.47;;
47289;SDS011;33197;52.524;13.444;2023-08-08T04:32:51;5.30;;;2.30;;
47289;SDS011;33197;52.524;13.444;2023-08-08T04:35:18;7.70;;;2.22;;
47289;SDS011;33197;52.524;13.444;2023-08-08T04:37:45;9.90;;;2.30;;
47289;SDS011;33197;52.524;13.444;2023-08-08T04:40:12;6.18;;;2.20;;
47289;SDS011;33197;52.524;13.444;2023-08-08T04:42:40;4.53;;;2.15;;
47289;SDS011;33197;52.524;13.444;2023-08-08T04:45:08;3.95;;;2.15;;
47289;SDS011;33197;52.524;13.444;2023-08-08T04:47:35;6.47;;;2.63;;
47289;SDS011;33197;52.524;13.444;2023-08-08T04:50:03;6.00;;;2.38;;
47289;SDS011;33197;52.524;13.444;2023-08-08T04:52:30;8.30;;;2.33;;
47289;SDS011;33197;52.524;13.444;2023-08-08T04:54:58;5.53;;;2.17;;
47289;SDS011;33197;52.524;13.444;2023-08-08T04:57:25;3.53;;;2.17;;
47289;SDS011;33197;52.524;13.444;2023-08-08T05:00:17;9.93;;;2.10;;
47289;SDS011;33197;52.524;13.444;2023-08-08T05:02:44;7.50;;;2.00;;
47289;SDS011;33197;52.524;13.444;2023-08-08T05:05:12;5.70;;;2.13;;
47289;SDS011;33197;52.524;13.444;2023-08-08T05:07:39;6.45;;;2.22;;
47289;SDS011;33197;52.524;13.444;2023-08-08T05:10:06;6.10;;;2.25;;
47289;SDS011;33197;52.524;13.444;2023-08-08T05:12:34;8.23;;;2.95;;
47289;SDS011;33197;52.524;13.444;2023-08-08T05:15:01;7.20;;;2.25;;
47289;SDS011;33197;52.524;13.444;2023-08-08T05:17:29;5.35;;;2.20;;
47289;SDS011;33197;52.524;13.444;2023-08-08T05:19:58;5.20;;;2.08;;
47289;SDS011;33197;52.524;13.444;2023-08-08T05:22:25;4.97;;;2.00;;
47289;SDS011;33197;52.524;13.444;2023-08-08T05:24:53;7.15;;;2.45;;
47289;SDS011;33197;52.524;13.444;2023-08-08T05:27:20;4.40;;;2.25;;
47289;SDS011;33197;52.524;13.444;2023-08-08T05:29:47;14.30;;;2.72;;
47289;SDS011;33197;52.524;13.444;2023-08-08T05:32:15;6.97;;;2.00;;
47289;SDS011;33197;52.524;13.444;2023-08-08T05:34:42;4.95;;;2.08;;
47289;SDS011;33197;52.524;13.444;2023-08-08T05:37:09;12.23;;;2.90;;
47289;SDS011;33197;52.524;13.444;2023-08-08T05:39:44;7.53;;;2.08;;
47289;SDS011;33197;52.524;13.444;2023-08-08T05:42:11;5.85;;;2.20;;
47289;SDS011;33197;52.524;13.444;2023-08-08T05:44:39;7.43;;;2.33;;
47289;SDS011;33197;52.524;13.444;2023-08-08T05:47:08;5.75;;;2.05;;
47289;SDS011;33197;52.524;13.444;2023-08-08T05:49:36;4.63;;;1.92;;
47289;SDS011;33197;52.524;13.444;2023-08-08T05:52:03;9.73;;;2.10;;
47289;SDS011;33197;52.524;13.444;2023-08-08T05:54:31;6.25;;;2.10;;
47289;SDS011;33197;52.524;13.444;2023-08-08T05:56:58;4.68;;;1.85;;
47289;SDS011;33197;52.524;13.444;2023-08-08T05:59:25;3.88;;;2.58;;
47289;SDS011;33197;52.524;13.444;2023-08-08T06:01:52;7.57;;;2.50;;
47289;SDS011;33197;52.524;13.444;2023-08-08T06:04:20;4.95;;;2.72;;
47289;SDS011;33197;52.524;13.444;2023-08-08T06:06:47;7.95;;;2.25;;
47289;SDS011;33197;52.524;13.444;2023-08-08T06:09:16;11.90;;;2.33;;
47289;SDS011;33197;52.524;13.444;2023-08-08T06:11:43;4.15;;;2.10;;
47289;SDS011;33197;52.524;13.444;2023-08-08T06:14:11;9.15;;;2.30;;
47289;SDS011;33197;52.524;13.444;2023-08-08T06:16:38;4.35;;;1.95;;
47289;SDS011;33197;52.524;13.444;2023-08-08T06:19:05;5.28;;;2.58;;
47289;SDS011;33197;52.524;13.444;2023-08-08T06:21:33;4.35;;;2.42;;
47289;SDS011;33197;52.524;13.444;2023-08-08T06:24:00;5.00;;;2.47;;
47289;SDS011;33197;52.524;13.444;2023-08-08T06:26:27;8.65;;;2.10;;
47289;SDS011;33197;52.524;13.444;2023-08-08T06:28:55;8.98;;;2.25;;
47289;SDS011;33197;52.524;13.444;2023-08-08T06:31:22;9.77;;;2.50;;
47289;SDS011;33197;52.524;13.444;2023-08-08T06:33:50;5.03;;;2.35;;
47289;SDS011;33197;52.524;13.444;2023-08-08T06:36:17;9.15;;;2.33;;
47289;SDS011;33197;52.524;13.444;2023-08-08T06:38:44;12.40;;;2.67;;
47289;SDS011;33197;52.524;13.444;2023-08-08T06:41:11;8.85;;;2.20;;
47289;SDS011;33197;52.524;13.444;2023-08-08T06:43:39;12.15;;;2.95;;
47289;SDS011;33197;52.524;13.444;2023-08-08T06:46:06;5.88;;;2.53;;
47289;SDS011;33197;52.524;13.444;2023-08-08T06:48:34;9.38;;;2.30;;
47289;SDS011;33197;52.524;13.444;2023-08-08T06:51:01;4.97;;;2.20;;
47289;SDS011;33197;52.524;13.444;2023-08-08T06:53:28;6.78;;;2.65;;
47289;SDS011;33197;52.524;13.444;2023-08-08T06:55:56;3.78;;;2.17;;
47289;SDS011;33197;52.524;13.444;2023-08-08T06:58:23;4.53;;;2.45;;
47289;SDS011;33197;52.524;13.444;2023-08-08T07:00:50;8.18;;;2.70;;
47289;SDS011;33197;52.524;13.444;2023-08-08T07:03:18;8.15;;;2.42;;
47289;SDS011;33197;52.524;13.444;2023-08-08T07:05:45;6.60;;;2.30;;
47289;SDS011;33197;52.524;13.444;2023-08-08T07:08:14;3.92;;;1.70;;
47289;SDS011;33197;52.524;13.444;2023-08-08T07:10:41;5.78;;;2.40;;
47289;SDS011;33197;52.524;13.444;2023-08-08T07:13:09;5.50;;;1.90;;
47289;SDS011;33197;52.524;13.444;2023-08-08T07:15:36;5.95;;;1.85;;
47289;SDS011;33197;52.524;13.444;2023-08-08T07:18:04;12.68;;;2.47;;
47289;SDS011;33197;52.524;13.444;2023-08-08T07:20:32;8.93;;;2.40;;
47289;SDS011;33197;52.524;13.444;2023-08-08T07:22:59;6.07;;;2.20;;
47289;SDS011;33197;52.524;13.444;2023-08-08T07:25:28;2.78;;;1.77;;
47289;SDS011;33197;52.524;13.444;2023-08-08T07:28:01;3.60;;;1.73;;
47289;SDS011;33197;52.524;13.444;2023-08-08T07:30:29;6.90;;;2.72;;
47289;SDS011;33197;52.524;13.444;2023-08-08T07:32:56;3.97;;;1.92;;
47289;SDS011;33197;52.524;13.444;2023-08-08T07:35:24;5.30;;;1.90;;
47289;SDS011;33197;52.524;13.444;2023-08-08T07:37:51;6.57;;;2.00;;
47289;SDS011;33197;52.524;13.444;2023-08-08T07:40:19;2.58;;;1.98;;
47289;SDS011;33197;52.524;13.444;2023-08-08T07:42:48;6.05;;;2.00;;
47289;SDS011;33197;52.524;13.444;2023-08-08T07:45:16;4.88;;;2.08;;
47289;SDS011;33197;52.524;13.444;2023-08-08T07:47:43;4.32;;;1.98;;
47289;SDS011;33197;52.524;13.444;2023-08-08T07:50:11;10.32;;;2.40;;
47289;SDS011;33197;52.524;13.444;2023-08-08T07:52:38;4.95;;;2.20;;
47289;SDS011;33197;52.524;13.444;2023-08-08T07:55:06;2.90;;;1.75;;
47289;SDS011;33197;52.524;13.444;2023-08-08T07:57:33;4.97;;;2.10;;
47289;SDS011;33197;52.524;13.444;2023-08-08T08:00:04;9.30;;;2.22;;
47289;SDS011;33197;52.524;13.444;2023-08-08T08:02:39;4.85;;;1.90;;
47289;SDS011;33197;52.524;13.444;2023-08-08T08:05:08;6.00;;;1.90;;
47289;SDS011;33197;52.524;13.444;2023-08-08T08:07:35;7.00;;;2.67;;
47289;SDS011;33197;52.524;13.444;2023-08-08T08:10:04;6.53;;;2.13;;
47289;SDS011;33197;52.524;13.444;2023-08-08T08:12:33;4.90;;;1.88;;
47289;SDS011;33197;52.524;13.444;2023-08-08T08:15:00;5.90;;;2.28;;
47289;SDS011;33197;52.524;13.444;2023-08-08T08:17:28;10.68;;;2.50;;
47289;SDS011;33197;52.524;13.444;2023-08-08T08:19:55;5.90;;;2.08;;
47289;SDS011;33197;52.524;13.444;2023-08-08T08:22:23;4.72;;;2.28;;
47289;SDS011;33197;52.524;13.444;2023-08-08T08:24:50;4.72;;;2.35;;
47289;SDS011;33197;52.524;13.444;2023-08-08T08:27:17;7.35;;;2.10;;
47289;SDS011;33197;52.524;13.444;2023-08-08T08:29:45;4.63;;;1.77;;
47289;SDS011;33197;52.524;13.444;2023-08-08T08:32:12;4.15;;;1.73;;
47289;SDS011;33197;52.524;13.444;2023-08-08T08:34:39;7.65;;;2.20;;
47289;SDS011;33197;52.524;13.444;2023-08-08T08:37:07;4.35;;;1.83;;
47289;SDS011;33197;52.524;13.444;2023-08-08T08:39:34;6.32;;;2.03;;
47289;SDS011;33197;52.524;13.444;2023-08-08T08:42:01;10.00;;;1.60;;
47289;SDS011;33197;52.524;13.444;2023-08-08T08:44:31;4.43;;;1.55;;
47289;SDS011;33197;52.524;13.444;2023-08-08T08:47:00;8.52;;;2.10;;
47289;SDS011;33197;52.524;13.444;2023-08-08T08:49:32;7.97;;;2.17;;
47289;SDS011;33197;52.524;13.444;2023-08-08T08:51:59;6.28;;;1.63;;
47289;SDS011;33197;52.524;13.444;2023-08-08T08:54:32;5.82;;;1.63;;
47289;SDS011;33197;52.524;13.444;2023-08-08T08:56:59;4.72;;;2.33;;
47289;SDS011;33197;52.524;13.444;2023-08-08T08:59:27;9.27;;;1.95;;
47289;SDS011;33197;52.524;13.444;2023-08-08T09:01:55;13.55;;;2.65;;
47289;SDS011;33197;52.524;13.444;2023-08-08T09:04:22;5.97;;;1.75;;
47289;SDS011;33197;52.524;13.444;2023-08-08T09:06:50;6.88;;;1.77;;
47289;SDS011;33197;52.524;13.444;2023-08-08T09:09:18;5.43;;;2.42;;
47289;SDS011;33197;52.524;13.444;2023-08-08T09:11:49;4.78;;;1.90;;
47289;SDS011;33197;52.524;13.444;2023-08-08T09:14:24;5.93;;;1.60;;
47289;SDS011;33197;52.524;13.444;2023-08-08T09:16:52;7.03;;;2.08;;
47289;SDS011;33197;52.524;13.444;2023-08-08T09:19:20;5.32;;;1.95;;
47289;SDS011;33197;52.524;13.444;2023-08-08T09:21:48;3.85;;;1.58;;
47289;SDS011;33197;52.524;13.444;2023-08-08T09:24:16;4.60;;;1.95;;
47289;SDS011;33197;52.524;13.444;2023-08-08T09:26:44;5.80;;;1.70;;
47289;SDS011;33197;52.524;13.444;2023-08-08T09:29:12;10.50;;;2.15;;
47289;SDS011;33197;52.524;13.444;2023-08-08T09:31:41;4.63;;;2.20;;
47289;SDS011;33197;52.524;13.444;2023-08-08T09:34:08;3.20;;;1.70;;
47289;SDS011;33197;52.524;13.444;2023-08-08T09:36:35;7.07;;;2.30;;
47289;SDS011;33197;52.524;13.444;2023-08-08T09:39:04;3.67;;;1.98;;
47289;SDS011;33197;52.524;13.444;2023-08-08T09:41:32;7.20;;;2.10;;
47289;SDS011;33197;52.524;13.444;2023-08-08T09:43:59;4.35;;;1.83;;
47289;SDS011;33197;52.524;13.444;2023-08-08T09:46:28;7.85;;;2.17;;
47289;SDS011;33197;52.524;13.444;2023-08-08T09:48:57;5.20;;;2.00;;
47289;SDS011;33197;52.524;13.444;2023-08-08T09:51:24;4.38;;;2.05;;
47289;SDS011;33197;52.524;13.444;2023-08-08T09:53:52;4.18;;;1.70;;
47289;SDS011;33197;52.524;13.444;2023-08-08T09:56:20;5.75;;;2.00;;
47289;SDS011;33197;52.524;13.444;2023-08-08T09:58:47;6.03;;;2.10;;
47289;SDS011;33197;52.524;13.444;2023-08-08T10:01:14;8.43;;;1.75;;
47289;SDS011;33197;52.524;13.444;2023-08-08T10:03:42;12.25;;;2.33;;
47289;SDS011;33197;52.524;13.444;2023-08-08T10:06:10;5.78;;;2.20;;
47289;SDS011;33197;52.524;13.444;2023-08-08T10:08:37;12.57;;;3.05;;
47289;SDS011;33197;52.524;13.444;2023-08-08T10:11:05;11.38;;;3.50;;
47289;SDS011;33197;52.524;13.444;2023-08-08T10:13:35;8.30;;;2.67;;
47289;SDS011;33197;52.524;13.444;2023-08-08T10:16:09;5.68;;;1.88;;
47289;SDS011;33197;52.524;13.444;2023-08-08T10:18:36;6.00;;;2.17;;
47289;SDS011;33197;52.524;13.444;2023-08-08T10:21:04;4.30;;;2.38;;
47289;SDS011;33197;52.524;13.444;2023-08-08T10:23:37;9.55;;;2.30;;
47289;SDS011;33197;52.524;13.444;2023-08-08T10:26:06;6.60;;;2.60;;
47289;SDS011;33197;52.524;13.444;2023-08-08T10:28:52;6.47;;;2.33;;
47289;SDS011;33197;52.524;13.444;2023-08-08T10:31:25;5.70;;;2.58;;
47289;SDS011;33197;52.524;13.444;2023-08-08T10:34:03;3.88;;;2.50;;
47289;SDS011;33197;52.524;13.444;2023-08-08T10:39:37;9.77;;;2.17;;
47289;SDS011;33197;52.524;13.444;2023-08-08T10:42:05;5.55;;;2.50;;
47289;SDS011;33197;52.524;13.444;2023-08-08T10:44:40;5.97;;;2.40;;
47289;SDS011;33197;52.524;13.444;2023-08-08T10:47:08;4.28;;;2.10;;
47289;SDS011;33197;52.524;13.444;2023-08-08T10:49:37;5.70;;;2.00;;
47289;SDS011;33197;52.524;13.444;2023-08-08T10:52:05;9.75;;;2.33;;
47289;SDS011;33197;52.524;13.444;2023-08-08T10:54:32;6.28;;;2.28;;
47289;SDS011;33197;52.524;13.444;2023-08-08T10:57:00;6.40;;;2.03;;
47289;SDS011;33197;52.524;13.444;2023-08-08T10:59:35;7.30;;;2.08;;
47289;SDS011;33197;52.524;13.444;2023-08-08T11:02:03;4.97;;;1.90;;
47289;SDS011;33197;52.524;13.444;2023-08-08T11:04:31;7.95;;;2.47;;
47289;SDS011;33197;52.524;13.444;2023-08-08T11:06:59;3.80;;;2.10;;
47289;SDS011;33197;52.524;13.444;2023-08-08T11:09:26;7.40;;;2.25;;
47289;SDS011;33197;52.524;13.444;2023-08-08T11:11:54;2.67;;;1.63;;
47289;SDS011;33197;52.524;13.444;2023-08-08T11:14:21;5.65;;;1.60;;
47289;SDS011;33197;52.524;13.444;2023-08-08T11:16:50;7.40;;;1.85;;
47289;SDS011;33197;52.524;13.444;2023-08-08T11:19:19;4.50;;;2.00;;
47289;SDS011;33197;52.524;13.444;2023-08-08T11:21:47;4.57;;;1.90;;
47289;SDS011;33197;52.524;13.444;2023-08-08T11:24:15;5.20;;;2.00;;
47289;SDS011;33197;52.524;13.444;2023-08-08T11:26:43;3.95;;;1.77;;
47289;SDS011;33197;52.524;13.444;2023-08-08T11:29:12;4.03;;;1.67;;
47289;SDS011;33197;52.524;13.444;2023-08-08T11:31:39;7.57;;;2.05;;
47289;SDS011;33197;52.524;13.444;2023-08-08T11:34:06;6.80;;;1.98;;
47289;SDS011;33197;52.524;13.444;2023-08-08T11:36:36;4.25;;;1.98;;
47289;SDS011;33197;52.524;13.444;2023-08-08T11:39:04;3.00;;;1.38;;
47289;SDS011;33197;52.524;13.444;2023-08-08T11:41:36;2.97;;;1.20;;
47289;SDS011;33197;52.524;13.444;2023-08-08T11:44:03;4.93;;;1.15;;
47289;SDS011;33197;52.524;13.444;2023-08-08T11:46:31;5.20;;;1.10;;
47289;SDS011;33197;52.524;13.444;2023-08-08T11:49:05;2.78;;;1.10;;
47289;SDS011;33197;52.524;13.444;2023-08-08T11:51:34;2.60;;;1.27;;
47289;SDS011;33197;52.524;13.444;2023-08-08T11:54:02;1.40;;;1.00;;
47289;SDS011;33197;52.524;13.444;2023-08-08T11:56:33;4.47;;;1.30;;
47289;SDS011;33197;52.524;13.444;2023-08-08T11:59:01;4.22;;;1.50;;
47289;SDS011;33197;52.524;13.444;2023-08-08T12:01:30;3.95;;;1.50;;
47289;SDS011;33197;52.524;13.444;2023-08-08T12:03:58;4.95;;;1.83;;
47289;SDS011;33197;52.524;13.444;2023-08-08T12:06:31;3.90;;;1.52;;
47289;SDS011;33197;52.524;13.444;2023-08-08T12:09:00;4.88;;;1.80;;
47289;SDS011;33197;52.524;13.444;2023-08-08T12:11:28;4.70;;;1.73;;
47289;SDS011;33197;52.524;13.444;2023-08-08T12:13:59;2.78;;;1.73;;
47289;SDS011;33197;52.524;13.444;2023-08-08T12:16:30;4.82;;;1.80;;
47289;SDS011;33197;52.524;13.444;2023-08-08T12:19:01;3.40;;;2.08;;
47289;SDS011;33197;52.524;13.444;2023-08-08T12:21:29;4.07;;;1.63;;
47289;SDS011;33197;52.524;13.444;2023-08-08T12:23:57;2.28;;;1.35;;
47289;SDS011;33197;52.524;13.444;2023-08-08T12:26:24;3.47;;;2.15;;
47289;SDS011;33197;52.524;13.444;2023-08-08T12:28:52;4.15;;;1.80;;
47289;SDS011;33197;52.524;13.444;2023-08-08T12:31:20;9.68;;;2.03;;
47289;SDS011;33197;52.524;13.444;2023-08-08T12:33:48;5.85;;;1.73;;
47289;SDS011;33197;52.524;13.444;2023-08-08T12:36:15;5.72;;;2.05;;
47289;SDS011;33197;52.524;13.444;2023-08-08T12:38:43;3.20;;;1.90;;
47289;SDS011;33197;52.524;13.444;2023-08-08T12:41:10;7.05;;;2.70;;
47289;SDS011;33197;52.524;13.444;2023-08-08T12:43:38;8.73;;;2.40;;
47289;SDS011;33197;52.524;13.444;2023-08-08T12:46:05;2.38;;;1.58;;
47289;SDS011;33197;52.524;13.444;2023-08-08T12:48:32;3.15;;;1.63;;
47289;SDS011;33197;52.524;13.444;2023-08-08T12:51:00;3.92;;;1.58;;
47289;SDS011;33197;52.524;13.444;2023-08-08T12:53:27;2.10;;;1.45;;
47289;SDS011;33197;52.524;13.444;2023-08-08T12:55:54;6.32;;;2.28;;
47289;SDS011;33197;52.524;13.444;2023-08-08T12:58:21;3.38;;;1.40;;
47289;SDS011;33197;52.524;13.444;2023-08-08T13:00:50;4.97;;;1.27;;
47289;SDS011;33197;52.524;13.444;2023-08-08T13:03:17;3.50;;;1.65;;
47289;SDS011;33197;52.524;13.444;2023-08-08T13:05:44;4.90;;;1.90;;
47289;SDS011;33197;52.524;13.444;2023-08-08T13:08:12;5.63;;;2.03;;
47289;SDS011;33197;52.524;13.444;2023-08-08T13:10:40;3.97;;;1.50;;
47289;SDS011;33197;52.524;13.444;2023-08-08T13:13:07;4.90;;;1.75;;
47289;SDS011;33197;52.524;13.444;2023-08-08T13:15:35;6.70;;;1.60;;
47289;SDS011;33197;52.524;13.444;2023-08-08T13:18:02;5.15;;;1.90;;
47289;SDS011;33197;52.524;13.444;2023-08-08T13:20:29;9.45;;;1.55;;
47289;SDS011;33197;52.524;13.444;2023-08-08T13:22:57;4.18;;;1.33;;
47289;SDS011;33197;52.524;13.444;2023-08-08T13:25:24;5.75;;;2.03;;
47289;SDS011;33197;52.524;13.444;2023-08-08T13:27:51;5.40;;;1.27;;
47289;SDS011;33197;52.524;13.444;2023-08-08T13:30:19;6.72;;;1.30;;
47289;SDS011;33197;52.524;13.444;2023-08-08T13:32:48;4.22;;;1.40;;
47289;SDS011;33197;52.524;13.444;2023-08-08T13:35:16;3.00;;;1.48;;
47289;SDS011;33197;52.524;13.444;2023-08-08T13:37:43;2.67;;;1.80;;
47289;SDS011;33197;52.524;13.444;2023-08-08T13:40:12;3.80;;;1.65;;
47289;SDS011;33197;52.524;13.444;2023-08-08T13:42:39;2.60;;;1.30;;
47289;SDS011;33197;52.524;13.444;2023-08-08T13:45:06;2.33;;;1.58;;
47289;SDS011;33197;52.524;13.444;2023-08-08T13:47:34;4.25;;;1.27;;
47289;SDS011;33197;52.524;13.444;2023-08-08T13:50:02;4.80;;;2.03;;
47289;SDS011;33197;52.524;13.444;2023-08-08T13:52:29;7.15;;;1.27;;
47289;SDS011;33197;52.524;13.444;2023-08-08T13:54:59;3.38;;;0.70;;
47289;SDS011;33197;52.524;13.444;2023-08-08T13:57:26;1.75;;;0.88;;
47289;SDS011;33197;52.524;13.444;2023-08-08T13:59:54;1.83;;;1.00;;
47289;SDS011;33197;52.524;13.444;2023-08-08T14:02:21;3.95;;;1.02;;
47289;SDS011;33197;52.524;13.444;2023-08-08T14:04:48;2.17;;;0.90;;
47289;SDS011;33197;52.524;13.444;2023-08-08T14:07:15;5.25;;;1.40;;
47289;SDS011;33197;52.524;13.444;2023-08-08T14:09:43;4.80;;;1.08;;
47289;SDS011;33197;52.524;13.444;2023-08-08T14:12:10;1.63;;;0.73;;
47289;SDS011;33197;52.524;13.444;2023-08-08T14:14:37;1.45;;;0.80;;
47289;SDS011;33197;52.524;13.444;2023-08-08T14:17:04;1.92;;;1.13;;
47289;SDS011;33197;52.524;13.444;2023-08-08T14:19:32;2.38;;;0.95;;
47289;SDS011;33197;52.524;13.444;2023-08-08T14:21:59;2.50;;;1.17;;
47289;SDS011;33197;52.524;13.444;2023-08-08T14:24:26;3.40;;;1.02;;
47289;SDS011;33197;52.524;13.444;2023-08-08T14:26:54;4.07;;;1.33;;
47289;SDS011;33197;52.524;13.444;2023-08-08T14:29:21;3.95;;;1.55;;
47289;SDS011;33197;52.524;13.444;2023-08-08T14:31:48;2.25;;;1.27;;
47289;SDS011;33197;52.524;13.444;2023-08-08T14:34:30;1.80;;;1.33;;
47289;SDS011;33197;52.524;13.444;2023-08-08T14:36:58;3.25;;;1.85;;
47289;SDS011;33197;52.524;13.444;2023-08-08T14:39:25;2.55;;;1.30;;
47289;SDS011;33197;52.524;13.444;2023-08-08T14:41:53;2.10;;;1.55;;
47289;SDS011;33197;52.524;13.444;2023-08-08T14:44:20;2.75;;;1.42;;